sensor_id;sensor_type;location;lat;lon;timestamp;P1;durP1;ratioP1;P2;durP2;ratioP2
16957;SDS011;8595;52.542;11.974;2023-03-23T00:01:46;5.85;;;5.10;;
16957;SDS011;8595;52.542;11.974;2023-03-23T00:04:15;5.63;;;4.75;;
16957;SDS011;8595;52.542;11.974;2023-03-23T00:06:41;6.80;;;5.40;;
16957;SDS011;8595;52.542;11.974;2023-03-23T00:09:10;7.28;;;5.25;;
16957;SDS011;8595;52.542;11.974;2023-03-23T00:11:39;6.38;;;5.13;;
16957;SDS011;8595;52.542;11.974;2023-03-23T00:14:06;6.05;;;4.53;;
16957;SDS011;8595;52.542;11.974;2023-03-23T00:16:37;8.48;;;5.20;;
16957;SDS011;8595;52.542;11.974;2023-03-23T00:19:07;7.60;;;5.50;;
16957;SDS011;8595;52.542;11.974;2023-03-23T00:21:35;6.22;;;5.15;;
16957;SDS011;8595;52.542;11.974;2023-03-23T00:24:04;4.90;;;4.30;;
16957;SDS011;8595;52.542;11.974;2023-03-23T00:26:33;6.25;;;5.50;;
16957;SDS011;8595;52.542;11.974;2023-03-23T00:29:07;8.07;;;5.65;;
16957;SDS011;8595;52.542;11.974;2023-03-23T00:31:38;5.20;;;4.70;;
16957;SDS011;8595;52.542;11.974;2023-03-23T00:34:05;5.15;;;4.45;;
16957;SDS011;8595;52.542;11.974;2023-03-23T00:36:32;6.20;;;5.22;;
16957;SDS011;8595;52.542;11.974;2023-03-23T00:39:00;4.60;;;4.20;;
16957;SDS011;8595;52.542;11.974;2023-03-23T00:41:27;4.75;;;4.03;;
16957;SDS011;8595;52.542;11.974;2023-03-23T00:43:55;5.25;;;4.00;;
16957;SDS011;8595;52.542;11.974;2023-03-23T00:46:23;5.45;;;4.18;;
16957;SDS011;8595;52.542;11.974;2023-03-23T00:48:50;5.13;;;4.15;;
16957;SDS011;8595;52.542;11.974;2023-03-23T00:51:17;4.75;;;4.03;;
16957;SDS011;8595;52.542;11.974;2023-03-23T00:53:44;4.80;;;4.28;;
16957;SDS011;8595;52.542;11.974;2023-03-23T00:56:11;4.97;;;4.50;;
16957;SDS011;8595;52.542;11.974;2023-03-23T00:58:38;5.40;;;4.55;;
16957;SDS011;8595;52.542;11.974;2023-03-23T01:01:05;4.38;;;3.97;;
16957;SDS011;8595;52.542;11.974;2023-03-23T01:03:34;7.63;;;4.50;;
16957;SDS011;8595;52.542;11.974;2023-03-23T01:06:04;5.82;;;4.57;;
16957;SDS011;8595;52.542;11.974;2023-03-23T01:08:33;6.07;;;4.78;;
16957;SDS011;8595;52.542;11.974;2023-03-23T01:11:03;4.75;;;4.22;;
16957;SDS011;8595;52.542;11.974;2023-03-23T01:13:31;7.40;;;4.57;;
16957;SDS011;8595;52.542;11.974;2023-03-23T01:15:58;7.70;;;4.97;;
16957;SDS011;8595;52.542;11.974;2023-03-23T01:18:25;6.03;;;4.43;;
16957;SDS011;8595;52.542;11.974;2023-03-23T01:20:53;4.38;;;3.80;;
16957;SDS011;8595;52.542;11.974;2023-03-23T01:23:19;4.25;;;3.78;;
16957;SDS011;8595;52.542;11.974;2023-03-23T01:25:46;4.10;;;3.67;;
16957;SDS011;8595;52.542;11.974;2023-03-23T01:28:14;3.78;;;3.45;;
16957;SDS011;8595;52.542;11.974;2023-03-23T01:30:41;4.07;;;3.65;;
16957;SDS011;8595;52.542;11.974;2023-03-23T01:33:08;3.88;;;3.50;;
16957;SDS011;8595;52.542;11.974;2023-03-23T01:35:36;4.93;;;3.58;;
16957;SDS011;8595;52.542;11.974;2023-03-23T01:38:05;4.45;;;3.30;;
16957;SDS011;8595;52.542;11.974;2023-03-23T01:40:31;5.22;;;3.40;;
16957;SDS011;8595;52.542;11.974;2023-03-23T01:42:58;4.80;;;3.42;;
16957;SDS011;8595;52.542;11.974;2023-03-23T01:45:27;5.35;;;3.90;;
16957;SDS011;8595;52.542;11.974;2023-03-23T01:47:57;7.05;;;3.65;;
16957;SDS011;8595;52.542;11.974;2023-03-23T01:50:29;4.30;;;3.75;;
16957;SDS011;8595;52.542;11.974;2023-03-23T01:53:02;3.78;;;3.45;;
16957;SDS011;8595;52.542;11.974;2023-03-23T01:55:34;4.07;;;3.33;;
16957;SDS011;8595;52.542;11.974;2023-03-23T01:58:03;5.55;;;3.42;;
16957;SDS011;8595;52.542;11.974;2023-03-23T02:00:30;4.65;;;3.40;;
16957;SDS011;8595;52.542;11.974;2023-03-23T02:02:58;3.95;;;3.60;;
16957;SDS011;8595;52.542;11.974;2023-03-23T02:05:28;5.50;;;3.70;;
16957;SDS011;8595;52.542;11.974;2023-03-23T02:07:57;7.32;;;4.13;;
16957;SDS011;8595;52.542;11.974;2023-03-23T02:10:29;4.40;;;3.80;;
16957;SDS011;8595;52.542;11.974;2023-03-23T02:12:56;5.53;;;3.63;;
16957;SDS011;8595;52.542;11.974;2023-03-23T02:15:24;5.65;;;3.30;;
16957;SDS011;8595;52.542;11.974;2023-03-23T02:17:55;6.93;;;3.40;;
16957;SDS011;8595;52.542;11.974;2023-03-23T02:20:38;3.65;;;3.20;;
16957;SDS011;8595;52.542;11.974;2023-03-23T02:23:21;4.65;;;3.28;;
16957;SDS011;8595;52.542;11.974;2023-03-23T02:26:05;6.32;;;3.75;;
16957;SDS011;8595;52.542;11.974;2023-03-23T02:28:47;3.65;;;3.22;;
16957;SDS011;8595;52.542;11.974;2023-03-23T02:31:23;4.53;;;3.30;;
16957;SDS011;8595;52.542;11.974;2023-03-23T02:34:05;3.58;;;2.97;;
16957;SDS011;8595;52.542;11.974;2023-03-23T02:36:36;3.67;;;2.95;;
16957;SDS011;8595;52.542;11.974;2023-03-23T02:39:08;9.73;;;3.38;;
16957;SDS011;8595;52.542;11.974;2023-03-23T02:41:39;3.88;;;3.47;;
16957;SDS011;8595;52.542;11.974;2023-03-23T02:44:09;5.75;;;3.30;;
16957;SDS011;8595;52.542;11.974;2023-03-23T02:46:37;5.32;;;3.40;;
16957;SDS011;8595;52.542;11.974;2023-03-23T02:49:07;5.22;;;3.50;;
16957;SDS011;8595;52.542;11.974;2023-03-23T02:51:37;5.57;;;3.20;;
16957;SDS011;8595;52.542;11.974;2023-03-23T02:54:05;3.55;;;3.17;;
16957;SDS011;8595;52.542;11.974;2023-03-23T02:56:33;3.80;;;3.22;;
16957;SDS011;8595;52.542;11.974;2023-03-23T02:59:01;5.30;;;3.53;;
16957;SDS011;8595;52.542;11.974;2023-03-23T03:04:21;5.68;;;3.47;;
16957;SDS011;8595;52.542;11.974;2023-03-23T03:06:54;6.93;;;4.78;;
16957;SDS011;8595;52.542;11.974;2023-03-23T03:09:32;5.97;;;3.85;;
16957;SDS011;8595;52.542;11.974;2023-03-23T03:12:08;6.72;;;4.15;;
16957;SDS011;8595;52.542;11.974;2023-03-23T03:14:41;6.53;;;3.95;;
16957;SDS011;8595;52.542;11.974;2023-03-23T03:17:16;6.93;;;3.83;;
16957;SDS011;8595;52.542;11.974;2023-03-23T03:19:51;4.43;;;3.80;;
16957;SDS011;8595;52.542;11.974;2023-03-23T03:22:22;6.15;;;4.65;;
16957;SDS011;8595;52.542;11.974;2023-03-23T03:24:53;8.82;;;3.88;;
16957;SDS011;8595;52.542;11.974;2023-03-23T03:27:22;9.00;;;3.60;;
16957;SDS011;8595;52.542;11.974;2023-03-23T03:29:51;5.93;;;4.03;;
16957;SDS011;8595;52.542;11.974;2023-03-23T03:32:22;3.80;;;3.38;;
16957;SDS011;8595;52.542;11.974;2023-03-23T03:34:57;3.38;;;2.80;;
16957;SDS011;8595;52.542;11.974;2023-03-23T03:37:25;4.47;;;3.75;;
16957;SDS011;8595;52.542;11.974;2023-03-23T03:39:52;4.18;;;3.20;;
16957;SDS011;8595;52.542;11.974;2023-03-23T03:42:19;6.47;;;3.60;;
16957;SDS011;8595;52.542;11.974;2023-03-23T03:44:46;3.70;;;3.40;;
16957;SDS011;8595;52.542;11.974;2023-03-23T03:47:12;5.47;;;3.40;;
16957;SDS011;8595;52.542;11.974;2023-03-23T03:49:39;4.05;;;3.20;;
16957;SDS011;8595;52.542;11.974;2023-03-23T03:52:07;9.02;;;3.65;;
16957;SDS011;8595;52.542;11.974;2023-03-23T03:54:34;5.63;;;3.83;;
16957;SDS011;8595;52.542;11.974;2023-03-23T03:57:01;4.25;;;3.70;;
16957;SDS011;8595;52.542;11.974;2023-03-23T03:59:28;6.47;;;4.47;;
16957;SDS011;8595;52.542;11.974;2023-03-23T04:01:55;6.45;;;3.63;;
16957;SDS011;8595;52.542;11.974;2023-03-23T04:04:22;5.28;;;3.70;;
16957;SDS011;8595;52.542;11.974;2023-03-23T04:06:49;10.95;;;3.90;;
16957;SDS011;8595;52.542;11.974;2023-03-23T04:09:17;4.20;;;3.72;;
16957;SDS011;8595;52.542;11.974;2023-03-23T04:11:44;5.47;;;3.70;;
16957;SDS011;8595;52.542;11.974;2023-03-23T04:14:11;6.60;;;4.32;;
16957;SDS011;8595;52.542;11.974;2023-03-23T04:16:37;7.63;;;3.92;;
16957;SDS011;8595;52.542;11.974;2023-03-23T04:19:05;6.15;;;3.65;;
16957;SDS011;8595;52.542;11.974;2023-03-23T04:21:32;4.85;;;3.58;;
16957;SDS011;8595;52.542;11.974;2023-03-23T04:23:59;6.90;;;3.78;;
16957;SDS011;8595;52.542;11.974;2023-03-23T04:26:27;4.85;;;4.05;;
16957;SDS011;8595;52.542;11.974;2023-03-23T04:28:54;6.18;;;3.70;;
16957;SDS011;8595;52.542;11.974;2023-03-23T04:31:21;3.53;;;3.22;;
16957;SDS011;8595;52.542;11.974;2023-03-23T04:33:49;5.35;;;3.65;;
16957;SDS011;8595;52.542;11.974;2023-03-23T04:36:17;5.30;;;3.72;;
16957;SDS011;8595;52.542;11.974;2023-03-23T04:38:47;6.32;;;3.40;;
16957;SDS011;8595;52.542;11.974;2023-03-23T04:41:15;9.07;;;4.45;;
16957;SDS011;8595;52.542;11.974;2023-03-23T04:43:43;5.40;;;4.05;;
16957;SDS011;8595;52.542;11.974;2023-03-23T04:46:10;4.07;;;3.58;;
16957;SDS011;8595;52.542;11.974;2023-03-23T04:48:37;7.63;;;4.75;;
16957;SDS011;8595;52.542;11.974;2023-03-23T04:51:04;6.40;;;4.88;;
16957;SDS011;8595;52.542;11.974;2023-03-23T04:53:32;7.97;;;4.80;;
16957;SDS011;8595;52.542;11.974;2023-03-23T04:55:59;6.47;;;3.55;;
16957;SDS011;8595;52.542;11.974;2023-03-23T04:58:26;6.82;;;4.50;;
16957;SDS011;8595;52.542;11.974;2023-03-23T05:00:55;6.85;;;4.18;;
16957;SDS011;8595;52.542;11.974;2023-03-23T05:03:22;6.35;;;4.38;;
16957;SDS011;8595;52.542;11.974;2023-03-23T05:05:50;4.43;;;4.03;;
16957;SDS011;8595;52.542;11.974;2023-03-23T05:08:17;4.75;;;4.10;;
16957;SDS011;8595;52.542;11.974;2023-03-23T05:10:49;7.55;;;4.63;;
16957;SDS011;8595;52.542;11.974;2023-03-23T05:13:17;5.65;;;4.18;;
16957;SDS011;8595;52.542;11.974;2023-03-23T05:15:44;7.35;;;4.18;;
16957;SDS011;8595;52.542;11.974;2023-03-23T05:18:12;7.00;;;4.03;;
16957;SDS011;8595;52.542;11.974;2023-03-23T05:20:39;5.28;;;4.25;;
16957;SDS011;8595;52.542;11.974;2023-03-23T05:23:06;9.65;;;4.45;;
16957;SDS011;8595;52.542;11.974;2023-03-23T05:25:34;4.57;;;4.10;;
16957;SDS011;8595;52.542;11.974;2023-03-23T05:28:05;6.15;;;4.00;;
16957;SDS011;8595;52.542;11.974;2023-03-23T05:30:32;6.50;;;4.50;;
16957;SDS011;8595;52.542;11.974;2023-03-23T05:32:59;6.63;;;4.60;;
16957;SDS011;8595;52.542;11.974;2023-03-23T05:35:27;8.90;;;4.78;;
16957;SDS011;8595;52.542;11.974;2023-03-23T05:37:54;4.95;;;4.07;;
16957;SDS011;8595;52.542;11.974;2023-03-23T05:40:20;8.40;;;4.78;;
16957;SDS011;8595;52.542;11.974;2023-03-23T05:42:48;7.20;;;5.07;;
16957;SDS011;8595;52.542;11.974;2023-03-23T05:45:15;13.75;;;5.95;;
16957;SDS011;8595;52.542;11.974;2023-03-23T05:47:42;8.50;;;5.22;;
16957;SDS011;8595;52.542;11.974;2023-03-23T05:50:10;7.85;;;4.93;;
16957;SDS011;8595;52.542;11.974;2023-03-23T05:52:39;8.80;;;4.45;;
16957;SDS011;8595;52.542;11.974;2023-03-23T05:55:07;8.45;;;5.13;;
16957;SDS011;8595;52.542;11.974;2023-03-23T05:57:34;5.00;;;4.35;;
16957;SDS011;8595;52.542;11.974;2023-03-23T06:00:02;7.13;;;4.50;;
16957;SDS011;8595;52.542;11.974;2023-03-23T06:02:38;5.90;;;4.20;;
16957;SDS011;8595;52.542;11.974;2023-03-23T06:05:05;9.32;;;4.80;;
16957;SDS011;8595;52.542;11.974;2023-03-23T06:07:32;6.65;;;4.70;;
16957;SDS011;8595;52.542;11.974;2023-03-23T06:10:01;5.15;;;4.57;;
16957;SDS011;8595;52.542;11.974;2023-03-23T06:12:28;8.20;;;4.55;;
16957;SDS011;8595;52.542;11.974;2023-03-23T06:14:56;4.88;;;4.45;;
16957;SDS011;8595;52.542;11.974;2023-03-23T06:17:23;5.72;;;4.20;;
16957;SDS011;8595;52.542;11.974;2023-03-23T06:19:50;5.43;;;4.03;;
16957;SDS011;8595;52.542;11.974;2023-03-23T06:22:17;5.43;;;4.10;;
16957;SDS011;8595;52.542;11.974;2023-03-23T06:24:44;6.07;;;4.10;;
16957;SDS011;8595;52.542;11.974;2023-03-23T06:27:13;6.53;;;4.55;;
16957;SDS011;8595;52.542;11.974;2023-03-23T06:29:41;6.70;;;3.95;;
16957;SDS011;8595;52.542;11.974;2023-03-23T06:32:09;5.28;;;4.60;;
16957;SDS011;8595;52.542;11.974;2023-03-23T06:34:38;6.10;;;3.83;;
16957;SDS011;8595;52.542;11.974;2023-03-23T06:37:05;5.78;;;4.70;;
16957;SDS011;8595;52.542;11.974;2023-03-23T06:39:32;5.65;;;4.40;;
16957;SDS011;8595;52.542;11.974;2023-03-23T06:41:58;8.77;;;4.75;;
16957;SDS011;8595;52.542;11.974;2023-03-23T06:44:26;4.18;;;3.55;;
16957;SDS011;8595;52.542;11.974;2023-03-23T06:46:53;6.88;;;4.28;;
16957;SDS011;8595;52.542;11.974;2023-03-23T06:49:20;5.68;;;4.05;;
16957;SDS011;8595;52.542;11.974;2023-03-23T06:51:47;8.68;;;4.10;;
16957;SDS011;8595;52.542;11.974;2023-03-23T06:54:14;7.95;;;4.47;;
16957;SDS011;8595;52.542;11.974;2023-03-23T06:56:41;7.03;;;4.85;;
16957;SDS011;8595;52.542;11.974;2023-03-23T06:59:08;6.45;;;3.88;;
16957;SDS011;8595;52.542;11.974;2023-03-23T07:01:36;7.20;;;5.13;;
16957;SDS011;8595;52.542;11.974;2023-03-23T07:04:03;6.45;;;4.25;;
16957;SDS011;8595;52.542;11.974;2023-03-23T07:06:30;6.00;;;4.15;;
16957;SDS011;8595;52.542;11.974;2023-03-23T07:08:57;7.07;;;3.97;;
16957;SDS011;8595;52.542;11.974;2023-03-23T07:11:24;8.43;;;4.43;;
16957;SDS011;8595;52.542;11.974;2023-03-23T07:13:51;6.05;;;3.83;;
16957;SDS011;8595;52.542;11.974;2023-03-23T07:16:18;6.50;;;3.78;;
16957;SDS011;8595;52.542;11.974;2023-03-23T07:18:46;4.90;;;3.78;;
16957;SDS011;8595;52.542;11.974;2023-03-23T07:21:12;8.77;;;4.45;;
16957;SDS011;8595;52.542;11.974;2023-03-23T07:23:39;9.15;;;4.50;;
16957;SDS011;8595;52.542;11.974;2023-03-23T07:26:06;6.15;;;4.63;;
16957;SDS011;8595;52.542;11.974;2023-03-23T07:28:33;5.38;;;4.30;;
16957;SDS011;8595;52.542;11.974;2023-03-23T07:31:01;7.72;;;4.20;;
16957;SDS011;8595;52.542;11.974;2023-03-23T07:33:28;6.65;;;3.80;;
16957;SDS011;8595;52.542;11.974;2023-03-23T07:35:57;6.22;;;3.95;;
16957;SDS011;8595;52.542;11.974;2023-03-23T07:38:24;5.10;;;3.95;;
16957;SDS011;8595;52.542;11.974;2023-03-23T07:40:52;4.70;;;3.67;;
16957;SDS011;8595;52.542;11.974;2023-03-23T07:43:19;4.97;;;3.38;;
16957;SDS011;8595;52.542;11.974;2023-03-23T07:45:46;5.30;;;4.05;;
16957;SDS011;8595;52.542;11.974;2023-03-23T07:48:13;6.15;;;3.83;;
16957;SDS011;8595;52.542;11.974;2023-03-23T07:50:39;4.03;;;3.60;;
16957;SDS011;8595;52.542;11.974;2023-03-23T07:53:08;8.25;;;3.53;;
16957;SDS011;8595;52.542;11.974;2023-03-23T07:55:34;10.10;;;3.95;;
16957;SDS011;8595;52.542;11.974;2023-03-23T07:58:02;5.57;;;3.97;;
16957;SDS011;8595;52.542;11.974;2023-03-23T08:00:28;3.83;;;3.42;;
16957;SDS011;8595;52.542;11.974;2023-03-23T08:02:56;4.57;;;3.33;;
16957;SDS011;8595;52.542;11.974;2023-03-23T08:05:24;7.18;;;4.00;;
16957;SDS011;8595;52.542;11.974;2023-03-23T08:07:53;5.72;;;3.95;;
16957;SDS011;8595;52.542;11.974;2023-03-23T08:10:22;4.03;;;3.42;;
16957;SDS011;8595;52.542;11.974;2023-03-23T08:12:51;3.88;;;3.40;;
16957;SDS011;8595;52.542;11.974;2023-03-23T08:15:18;5.40;;;3.50;;
16957;SDS011;8595;52.542;11.974;2023-03-23T08:17:46;4.43;;;2.85;;
16957;SDS011;8595;52.542;11.974;2023-03-23T08:20:13;4.85;;;3.05;;
16957;SDS011;8595;52.542;11.974;2023-03-23T08:22:42;3.55;;;2.88;;
16957;SDS011;8595;52.542;11.974;2023-03-23T08:25:12;4.63;;;2.95;;
16957;SDS011;8595;52.542;11.974;2023-03-23T08:27:43;6.85;;;3.35;;
16957;SDS011;8595;52.542;11.974;2023-03-23T08:30:10;3.00;;;2.70;;
16957;SDS011;8595;52.542;11.974;2023-03-23T08:32:41;3.80;;;2.42;;
16957;SDS011;8595;52.542;11.974;2023-03-23T08:35:09;4.82;;;3.10;;
16957;SDS011;8595;52.542;11.974;2023-03-23T08:37:37;3.53;;;2.55;;
16957;SDS011;8595;52.542;11.974;2023-03-23T08:40:07;3.70;;;3.17;;
16957;SDS011;8595;52.542;11.974;2023-03-23T08:42:35;3.65;;;3.10;;
16957;SDS011;8595;52.542;11.974;2023-03-23T08:45:04;3.58;;;2.80;;
16957;SDS011;8595;52.542;11.974;2023-03-23T08:47:33;3.53;;;2.60;;
16957;SDS011;8595;52.542;11.974;2023-03-23T08:50:00;2.97;;;2.55;;
16957;SDS011;8595;52.542;11.974;2023-03-23T08:52:27;17.90;;;4.25;;
16957;SDS011;8595;52.542;11.974;2023-03-23T08:54:54;14.18;;;3.78;;
16957;SDS011;8595;52.542;11.974;2023-03-23T08:57:21;3.15;;;2.17;;
16957;SDS011;8595;52.542;11.974;2023-03-23T08:59:49;3.40;;;2.22;;
16957;SDS011;8595;52.542;11.974;2023-03-23T09:02:17;2.50;;;1.98;;
16957;SDS011;8595;52.542;11.974;2023-03-23T09:04:44;2.80;;;2.55;;
16957;SDS011;8595;52.542;11.974;2023-03-23T09:07:11;2.40;;;2.20;;
16957;SDS011;8595;52.542;11.974;2023-03-23T09:09:39;4.22;;;2.28;;
16957;SDS011;8595;52.542;11.974;2023-03-23T09:12:07;3.50;;;2.55;;
16957;SDS011;8595;52.542;11.974;2023-03-23T09:14:35;2.65;;;1.90;;
16957;SDS011;8595;52.542;11.974;2023-03-23T09:17:02;2.30;;;2.00;;
16957;SDS011;8595;52.542;11.974;2023-03-23T09:19:31;2.45;;;2.20;;
16957;SDS011;8595;52.542;11.974;2023-03-23T09:21:59;2.97;;;2.67;;
16957;SDS011;8595;52.542;11.974;2023-03-23T09:24:26;2.20;;;1.95;;
16957;SDS011;8595;52.542;11.974;2023-03-23T09:26:53;2.70;;;1.85;;
16957;SDS011;8595;52.542;11.974;2023-03-23T09:29:20;2.40;;;1.98;;
16957;SDS011;8595;52.542;11.974;2023-03-23T09:31:47;2.30;;;2.10;;
16957;SDS011;8595;52.542;11.974;2023-03-23T09:34:13;2.85;;;2.15;;
16957;SDS011;8595;52.542;11.974;2023-03-23T09:36:43;2.92;;;2.20;;
16957;SDS011;8595;52.542;11.974;2023-03-23T09:39:10;2.38;;;2.03;;
16957;SDS011;8595;52.542;11.974;2023-03-23T09:41:54;2.85;;;1.88;;
16957;SDS011;8595;52.542;11.974;2023-03-23T09:44:31;2.20;;;1.95;;
16957;SDS011;8595;52.542;11.974;2023-03-23T09:47:08;3.97;;;1.98;;
16957;SDS011;8595;52.542;11.974;2023-03-23T09:49:40;2.47;;;2.28;;
16957;SDS011;8595;52.542;11.974;2023-03-23T09:52:13;2.60;;;2.00;;
16957;SDS011;8595;52.542;11.974;2023-03-23T09:54:42;2.78;;;2.22;;
16957;SDS011;8595;52.542;11.974;2023-03-23T09:57:13;2.95;;;2.15;;
16957;SDS011;8595;52.542;11.974;2023-03-23T09:59:44;2.63;;;2.05;;
16957;SDS011;8595;52.542;11.974;2023-03-23T10:02:16;5.18;;;2.33;;
16957;SDS011;8595;52.542;11.974;2023-03-23T10:04:46;2.08;;;1.98;;
16957;SDS011;8595;52.542;11.974;2023-03-23T10:07:17;4.15;;;2.15;;
16957;SDS011;8595;52.542;11.974;2023-03-23T10:09:46;2.80;;;2.60;;
16957;SDS011;8595;52.542;11.974;2023-03-23T10:12:25;3.65;;;2.35;;
16957;SDS011;8595;52.542;11.974;2023-03-23T10:15:03;4.35;;;2.55;;
16957;SDS011;8595;52.542;11.974;2023-03-23T10:17:37;3.00;;;2.40;;
16957;SDS011;8595;52.542;11.974;2023-03-23T10:20:19;3.92;;;2.70;;
16957;SDS011;8595;52.542;11.974;2023-03-23T10:22:55;3.30;;;3.00;;
16957;SDS011;8595;52.542;11.974;2023-03-23T10:25:29;2.88;;;2.47;;
16957;SDS011;8595;52.542;11.974;2023-03-23T10:27:59;3.85;;;2.00;;
16957;SDS011;8595;52.542;11.974;2023-03-23T10:30:31;3.83;;;2.30;;
16957;SDS011;8595;52.542;11.974;2023-03-23T10:33:01;2.75;;;2.40;;
16957;SDS011;8595;52.542;11.974;2023-03-23T10:35:32;3.63;;;2.45;;
16957;SDS011;8595;52.542;11.974;2023-03-23T10:38:03;4.57;;;2.78;;
16957;SDS011;8595;52.542;11.974;2023-03-23T10:40:52;5.47;;;2.53;;
16957;SDS011;8595;52.542;11.974;2023-03-23T10:43:22;5.88;;;2.50;;
16957;SDS011;8595;52.542;11.974;2023-03-23T10:45:52;4.30;;;2.83;;
16957;SDS011;8595;52.542;11.974;2023-03-23T10:48:25;4.75;;;2.33;;
16957;SDS011;8595;52.542;11.974;2023-03-23T10:50:58;2.80;;;2.50;;
16957;SDS011;8595;52.542;11.974;2023-03-23T10:53:31;3.55;;;2.60;;
16957;SDS011;8595;52.542;11.974;2023-03-23T10:56:01;4.38;;;2.50;;
16957;SDS011;8595;52.542;11.974;2023-03-23T10:58:29;5.05;;;2.90;;
16957;SDS011;8595;52.542;11.974;2023-03-23T11:00:57;5.38;;;2.75;;
16957;SDS011;8595;52.542;11.974;2023-03-23T11:03:34;4.90;;;2.88;;
16957;SDS011;8595;52.542;11.974;2023-03-23T11:06:06;2.42;;;2.22;;
16957;SDS011;8595;52.542;11.974;2023-03-23T11:08:37;6.93;;;2.60;;
16957;SDS011;8595;52.542;11.974;2023-03-23T11:11:15;4.20;;;2.38;;
16957;SDS011;8595;52.542;11.974;2023-03-23T11:13:43;4.03;;;2.50;;
16957;SDS011;8595;52.542;11.974;2023-03-23T11:16:21;3.95;;;1.95;;
16957;SDS011;8595;52.542;11.974;2023-03-23T11:18:48;2.60;;;2.15;;
16957;SDS011;8595;52.542;11.974;2023-03-23T11:21:17;5.82;;;2.40;;
16957;SDS011;8595;52.542;11.974;2023-03-23T11:23:48;4.65;;;2.20;;
16957;SDS011;8595;52.542;11.974;2023-03-23T11:26:17;4.38;;;2.50;;
16957;SDS011;8595;52.542;11.974;2023-03-23T11:28:48;6.68;;;2.45;;
16957;SDS011;8595;52.542;11.974;2023-03-23T11:31:20;3.00;;;2.28;;
16957;SDS011;8595;52.542;11.974;2023-03-23T11:33:50;6.93;;;2.70;;
16957;SDS011;8595;52.542;11.974;2023-03-23T11:36:19;7.88;;;4.22;;
16957;SDS011;8595;52.542;11.974;2023-03-23T11:38:51;9.18;;;4.85;;
16957;SDS011;8595;52.542;11.974;2023-03-23T11:41:22;5.47;;;3.03;;
16957;SDS011;8595;52.542;11.974;2023-03-23T11:43:51;8.38;;;2.70;;
16957;SDS011;8595;52.542;11.974;2023-03-23T11:46:21;6.03;;;2.83;;
16957;SDS011;8595;52.542;11.974;2023-03-23T11:48:58;3.83;;;2.67;;
16957;SDS011;8595;52.542;11.974;2023-03-23T11:51:30;7.40;;;2.90;;
16957;SDS011;8595;52.542;11.974;2023-03-23T11:54:07;6.50;;;2.65;;
16957;SDS011;8595;52.542;11.974;2023-03-23T11:56:42;7.88;;;2.50;;
16957;SDS011;8595;52.542;11.974;2023-03-23T11:59:10;6.38;;;2.75;;
16957;SDS011;8595;52.542;11.974;2023-03-23T12:01:43;4.10;;;2.38;;
16957;SDS011;8595;52.542;11.974;2023-03-23T12:04:25;4.95;;;2.40;;
16957;SDS011;8595;52.542;11.974;2023-03-23T12:07:03;8.57;;;2.88;;
16957;SDS011;8595;52.542;11.974;2023-03-23T12:09:43;5.28;;;2.88;;
16957;SDS011;8595;52.542;11.974;2023-03-23T12:12:17;5.38;;;2.45;;
16957;SDS011;8595;52.542;11.974;2023-03-23T12:14:54;9.18;;;2.35;;
16957;SDS011;8595;52.542;11.974;2023-03-23T12:17:30;6.20;;;2.58;;
16957;SDS011;8595;52.542;11.974;2023-03-23T12:20:09;6.30;;;2.53;;
16957;SDS011;8595;52.542;11.974;2023-03-23T12:22:52;10.35;;;3.65;;
16957;SDS011;8595;52.542;11.974;2023-03-23T12:25:38;11.48;;;2.58;;
16957;SDS011;8595;52.542;11.974;2023-03-23T12:28:31;25.30;;;5.13;;
16957;SDS011;8595;52.542;11.974;2023-03-23T12:31:06;6.55;;;2.28;;
16957;SDS011;8595;52.542;11.974;2023-03-23T12:33:44;4.70;;;2.10;;
16957;SDS011;8595;52.542;11.974;2023-03-23T12:36:19;16.13;;;3.72;;
16957;SDS011;8595;52.542;11.974;2023-03-23T12:38:57;4.85;;;2.30;;
16957;SDS011;8595;52.542;11.974;2023-03-23T12:41:47;62.17;;;10.23;;
16957;SDS011;8595;52.542;11.974;2023-03-23T12:44:19;12.65;;;3.97;;
16957;SDS011;8595;52.542;11.974;2023-03-23T12:47:08;20.38;;;4.75;;
16957;SDS011;8595;52.542;11.974;2023-03-23T12:49:48;5.97;;;4.07;;
16957;SDS011;8595;52.542;11.974;2023-03-23T12:52:20;32.78;;;8.63;;
16957;SDS011;8595;52.542;11.974;2023-03-23T12:54:51;4.53;;;2.45;;
16957;SDS011;8595;52.542;11.974;2023-03-23T12:57:24;9.20;;;3.10;;
16957;SDS011;8595;52.542;11.974;2023-03-23T12:59:58;4.07;;;2.50;;
16957;SDS011;8595;52.542;11.974;2023-03-23T13:02:36;6.97;;;2.85;;
16957;SDS011;8595;52.542;11.974;2023-03-23T13:05:08;8.30;;;3.08;;
16957;SDS011;8595;52.542;11.974;2023-03-23T13:07:41;6.53;;;2.78;;
16957;SDS011;8595;52.542;11.974;2023-03-23T13:10:14;8.80;;;2.42;;
16957;SDS011;8595;52.542;11.974;2023-03-23T13:12:47;4.43;;;2.38;;
16957;SDS011;8595;52.542;11.974;2023-03-23T13:15:18;4.65;;;1.90;;
16957;SDS011;8595;52.542;11.974;2023-03-23T13:17:54;7.05;;;3.47;;
16957;SDS011;8595;52.542;11.974;2023-03-23T13:20:33;8.48;;;2.40;;
16957;SDS011;8595;52.542;11.974;2023-03-23T13:23:14;3.90;;;2.00;;
16957;SDS011;8595;52.542;11.974;2023-03-23T13:25:49;5.93;;;2.40;;
16957;SDS011;8595;52.542;11.974;2023-03-23T13:28:20;4.50;;;1.90;;
16957;SDS011;8595;52.542;11.974;2023-03-23T13:31:00;3.30;;;1.73;;
16957;SDS011;8595;52.542;11.974;2023-03-23T13:33:32;8.23;;;2.40;;
16957;SDS011;8595;52.542;11.974;2023-03-23T13:36:04;3.92;;;1.83;;
16957;SDS011;8595;52.542;11.974;2023-03-23T13:38:35;8.90;;;2.60;;
16957;SDS011;8595;52.542;11.974;2023-03-23T13:41:06;3.58;;;2.00;;
16957;SDS011;8595;52.542;11.974;2023-03-23T13:43:37;6.18;;;2.33;;
16957;SDS011;8595;52.542;11.974;2023-03-23T13:46:11;4.68;;;1.80;;
16957;SDS011;8595;52.542;11.974;2023-03-23T13:48:51;3.78;;;2.53;;
16957;SDS011;8595;52.542;11.974;2023-03-23T13:51:33;3.78;;;2.00;;
16957;SDS011;8595;52.542;11.974;2023-03-23T13:54:06;4.13;;;1.73;;
16957;SDS011;8595;52.542;11.974;2023-03-23T13:56:41;4.85;;;2.30;;
16957;SDS011;8595;52.542;11.974;2023-03-23T13:59:15;3.55;;;1.80;;
16957;SDS011;8595;52.542;11.974;2023-03-23T14:01:54;4.57;;;2.10;;
16957;SDS011;8595;52.542;11.974;2023-03-23T14:04:22;4.95;;;2.17;;
16957;SDS011;8595;52.542;11.974;2023-03-23T14:07:07;5.22;;;2.60;;
16957;SDS011;8595;52.542;11.974;2023-03-23T14:09:37;5.13;;;2.17;;
16957;SDS011;8595;52.542;11.974;2023-03-23T14:12:06;10.05;;;2.28;;
16957;SDS011;8595;52.542;11.974;2023-03-23T14:14:43;4.80;;;2.20;;
16957;SDS011;8595;52.542;11.974;2023-03-23T14:17:13;5.70;;;2.40;;
16957;SDS011;8595;52.542;11.974;2023-03-23T14:19:42;3.67;;;1.95;;
16957;SDS011;8595;52.542;11.974;2023-03-23T14:22:17;4.45;;;2.25;;
16957;SDS011;8595;52.542;11.974;2023-03-23T14:24:45;7.55;;;2.28;;
16957;SDS011;8595;52.542;11.974;2023-03-23T14:27:13;8.85;;;2.47;;
16957;SDS011;8595;52.542;11.974;2023-03-23T14:29:40;3.42;;;2.25;;
16957;SDS011;8595;52.542;11.974;2023-03-23T14:32:17;3.70;;;2.08;;
16957;SDS011;8595;52.542;11.974;2023-03-23T14:34:50;5.10;;;2.55;;
16957;SDS011;8595;52.542;11.974;2023-03-23T14:37:18;4.60;;;2.45;;
16957;SDS011;8595;52.542;11.974;2023-03-23T14:39:47;7.43;;;3.60;;
16957;SDS011;8595;52.542;11.974;2023-03-23T14:42:16;7.22;;;2.92;;
16957;SDS011;8595;52.542;11.974;2023-03-23T14:44:51;4.90;;;3.15;;
16957;SDS011;8595;52.542;11.974;2023-03-23T14:47:22;9.02;;;3.58;;
16957;SDS011;8595;52.542;11.974;2023-03-23T14:49:52;7.03;;;4.85;;
16957;SDS011;8595;52.542;11.974;2023-03-23T14:52:21;5.70;;;3.85;;
16957;SDS011;8595;52.542;11.974;2023-03-23T14:54:48;5.75;;;3.85;;
16957;SDS011;8595;52.542;11.974;2023-03-23T14:57:16;7.97;;;4.35;;
16957;SDS011;8595;52.542;11.974;2023-03-23T14:59:44;4.90;;;4.25;;
16957;SDS011;8595;52.542;11.974;2023-03-23T15:02:12;8.98;;;4.00;;
16957;SDS011;8595;52.542;11.974;2023-03-23T15:04:54;7.30;;;3.80;;
16957;SDS011;8595;52.542;11.974;2023-03-23T15:07:24;5.95;;;4.00;;
16957;SDS011;8595;52.542;11.974;2023-03-23T15:09:55;4.38;;;3.38;;